sensor_id;sensor_type;location;lat;lon;timestamp;pressure;altitude;pressure_sealevel;temperature
23208;BMP180;11773;52.570;13.052;2023-11-21T00:01:54;100550.00;;;15.10
23208;BMP180;11773;52.570;13.052;2023-11-21T00:04:25;100566.00;;;15.00
23208;BMP180;11773;52.570;13.052;2023-11-21T00:06:56;100568.00;;;15.00
23208;BMP180;11773;52.570;13.052;2023-11-21T00:09:26;100561.00;;;15.00
23208;BMP180;11773;52.570;13.052;2023-11-21T00:11:56;100563.00;;;14.90
23208;BMP180;11773;52.570;13.052;2023-11-21T00:14:25;100558.00;;;14.90
23208;BMP180;11773;52.570;13.052;2023-11-21T00:16:55;100565.00;;;14.90
23208;BMP180;11773;52.570;13.052;2023-11-21T00:19:24;100586.00;;;14.90
23208;BMP180;11773;52.570;13.052;2023-11-21T00:21:54;100567.00;;;14.80
23208;BMP180;11773;52.570;13.052;2023-11-21T00:24:26;100572.00;;;14.80
23208;BMP180;11773;52.570;13.052;2023-11-21T00:26:56;100591.00;;;14.70
23208;BMP180;11773;52.570;13.052;2023-11-21T00:29:26;100592.00;;;14.70
23208;BMP180;11773;52.570;13.052;2023-11-21T00:31:55;100583.00;;;14.60
23208;BMP180;11773;52.570;13.052;2023-11-21T00:34:25;100580.00;;;14.60
23208;BMP180;11773;52.570;13.052;2023-11-21T00:36:54;100589.00;;;14.60
23208;BMP180;11773;52.570;13.052;2023-11-21T00:39:24;100581.00;;;14.50
23208;BMP180;11773;52.570;13.052;2023-11-21T00:41:54;100588.00;;;14.50
23208;BMP180;11773;52.570;13.052;2023-11-21T00:44:24;100601.00;;;14.50
23208;BMP180;11773;52.570;13.052;2023-11-21T00:46:54;100589.00;;;14.50
23208;BMP180;11773;52.570;13.052;2023-11-21T00:49:24;100589.00;;;14.40
23208;BMP180;11773;52.570;13.052;2023-11-21T00:51:54;100611.00;;;14.40
23208;BMP180;11773;52.570;13.052;2023-11-21T00:54:24;100597.00;;;14.40
23208;BMP180;11773;52.570;13.052;2023-11-21T00:56:53;100616.00;;;14.40
23208;BMP180;11773;52.570;13.052;2023-11-21T00:59:23;100597.00;;;14.30
23208;BMP180;11773;52.570;13.052;2023-11-21T01:01:53;100608.00;;;14.30
23208;BMP180;11773;52.570;13.052;2023-11-21T01:04:22;100608.00;;;14.20
23208;BMP180;11773;52.570;13.052;2023-11-21T01:06:52;100611.00;;;14.20
23208;BMP180;11773;52.570;13.052;2023-11-21T01:09:22;100613.00;;;14.20
23208;BMP180;11773;52.570;13.052;2023-11-21T01:11:55;100621.00;;;14.10
23208;BMP180;11773;52.570;13.052;2023-11-21T01:14:25;100629.00;;;14.10
23208;BMP180;11773;52.570;13.052;2023-11-21T01:16:55;100627.00;;;14.10
23208;BMP180;11773;52.570;13.052;2023-11-21T01:19:25;100627.00;;;14.10
23208;BMP180;11773;52.570;13.052;2023-11-21T01:21:54;100637.00;;;14.00
23208;BMP180;11773;52.570;13.052;2023-11-21T01:24:26;100626.00;;;14.00
23208;BMP180;11773;52.570;13.052;2023-11-21T01:26:55;100632.00;;;13.90
23208;BMP180;11773;52.570;13.052;2023-11-21T01:29:25;100632.00;;;13.90
23208;BMP180;11773;52.570;13.052;2023-11-21T01:31:56;100635.00;;;13.80
23208;BMP180;11773;52.570;13.052;2023-11-21T01:34:26;100639.00;;;13.80
23208;BMP180;11773;52.570;13.052;2023-11-21T01:36:56;100639.00;;;13.80
23208;BMP180;11773;52.570;13.052;2023-11-21T01:39:26;100638.00;;;13.80
23208;BMP180;11773;52.570;13.052;2023-11-21T01:41:55;100650.00;;;13.80
23208;BMP180;11773;52.570;13.052;2023-11-21T01:44:26;100657.00;;;13.70
23208;BMP180;11773;52.570;13.052;2023-11-21T01:46:57;100651.00;;;13.70
23208;BMP180;11773;52.570;13.052;2023-11-21T01:49:26;100648.00;;;13.60
23208;BMP180;11773;52.570;13.052;2023-11-21T01:51:56;100653.00;;;13.60
23208;BMP180;11773;52.570;13.052;2023-11-21T01:54:26;100670.00;;;13.60
23208;BMP180;11773;52.570;13.052;2023-11-21T01:57:01;100664.00;;;13.60
23208;BMP180;11773;52.570;13.052;2023-11-21T01:59:38;100665.00;;;13.50
23208;BMP180;11773;52.570;13.052;2023-11-21T02:02:10;100669.00;;;13.50
23208;BMP180;11773;52.570;13.052;2023-11-21T02:04:40;100664.00;;;13.50
23208;BMP180;11773;52.570;13.052;2023-11-21T02:07:09;100674.00;;;13.40
23208;BMP180;11773;52.570;13.052;2023-11-21T02:09:39;100662.00;;;13.40
23208;BMP180;11773;52.570;13.052;2023-11-21T02:12:10;100662.00;;;13.40
23208;BMP180;11773;52.570;13.052;2023-11-21T02:14:40;100667.00;;;13.30
23208;BMP180;11773;52.570;13.052;2023-11-21T02:17:10;100690.00;;;13.30
23208;BMP180;11773;52.570;13.052;2023-11-21T02:19:41;100668.00;;;13.20
23208;BMP180;11773;52.570;13.052;2023-11-21T02:22:12;100680.00;;;13.20
23208;BMP180;11773;52.570;13.052;2023-11-21T02:24:46;100681.00;;;13.20
23208;BMP180;11773;52.570;13.052;2023-11-21T02:27:16;100689.00;;;13.20
23208;BMP180;11773;52.570;13.052;2023-11-21T02:29:47;100672.00;;;13.10
23208;BMP180;11773;52.570;13.052;2023-11-21T02:32:17;100684.00;;;13.10
23208;BMP180;11773;52.570;13.052;2023-11-21T02:34:47;100665.00;;;13.10
23208;BMP180;11773;52.570;13.052;2023-11-21T02:37:17;100670.00;;;13.10
23208;BMP180;11773;52.570;13.052;2023-11-21T02:39:46;100683.00;;;13.00
23208;BMP180;11773;52.570;13.052;2023-11-21T02:42:16;100680.00;;;13.00
23208;BMP180;11773;52.570;13.052;2023-11-21T02:44:46;100679.00;;;13.10
23208;BMP180;11773;52.570;13.052;2023-11-21T02:47:15;100679.00;;;13.00
23208;BMP180;11773;52.570;13.052;2023-11-21T02:49:45;100685.00;;;13.00
23208;BMP180;11773;52.570;13.052;2023-11-21T02:52:15;100695.00;;;13.00
23208;BMP180;11773;52.570;13.052;2023-11-21T02:54:45;100697.00;;;13.00
23208;BMP180;11773;52.570;13.052;2023-11-21T02:57:14;100691.00;;;13.00
23208;BMP180;11773;52.570;13.052;2023-11-21T02:59:44;100699.00;;;13.00
23208;BMP180;11773;52.570;13.052;2023-11-21T03:02:13;100699.00;;;13.00
23208;BMP180;11773;52.570;13.052;2023-11-21T03:04:44;100701.00;;;13.00
23208;BMP180;11773;52.570;13.052;2023-11-21T03:07:14;100696.00;;;13.00
23208;BMP180;11773;52.570;13.052;2023-11-21T03:09:44;100709.00;;;13.00
23208;BMP180;11773;52.570;13.052;2023-11-21T03:12:14;100714.00;;;13.00
23208;BMP180;11773;52.570;13.052;2023-11-21T03:14:44;100714.00;;;13.10
23208;BMP180;11773;52.570;13.052;2023-11-21T03:17:14;100718.00;;;13.00
23208;BMP180;11773;52.570;13.052;2023-11-21T03:19:43;100723.00;;;13.00
23208;BMP180;11773;52.570;13.052;2023-11-21T03:22:13;100714.00;;;13.00
23208;BMP180;11773;52.570;13.052;2023-11-21T03:24:42;100726.00;;;13.00
23208;BMP180;11773;52.570;13.052;2023-11-21T03:27:12;100740.00;;;13.00
23208;BMP180;11773;52.570;13.052;2023-11-21T03:29:41;100741.00;;;13.00
23208;BMP180;11773;52.570;13.052;2023-11-21T03:32:12;100742.00;;;13.00
23208;BMP180;11773;52.570;13.052;2023-11-21T03:34:56;100736.00;;;13.00
23208;BMP180;11773;52.570;13.052;2023-11-21T03:37:27;100749.00;;;13.00
23208;BMP180;11773;52.570;13.052;2023-11-21T03:39:57;100741.00;;;13.00
23208;BMP180;11773;52.570;13.052;2023-11-21T03:42:26;100753.00;;;13.00
23208;BMP180;11773;52.570;13.052;2023-11-21T03:44:56;100760.00;;;13.00
23208;BMP180;11773;52.570;13.052;2023-11-21T03:47:28;100758.00;;;13.00
23208;BMP180;11773;52.570;13.052;2023-11-21T03:49:57;100759.00;;;13.00
23208;BMP180;11773;52.570;13.052;2023-11-21T03:52:27;100769.00;;;13.00
23208;BMP180;11773;52.570;13.052;2023-11-21T03:54:57;100765.00;;;13.00
23208;BMP180;11773;52.570;13.052;2023-11-21T03:57:27;100762.00;;;13.00
23208;BMP180;11773;52.570;13.052;2023-11-21T03:59:59;100764.00;;;13.00
23208;BMP180;11773;52.570;13.052;2023-11-21T04:02:29;100773.00;;;13.00
23208;BMP180;11773;52.570;13.052;2023-11-21T04:05:00;100775.00;;;13.00
23208;BMP180;11773;52.570;13.052;2023-11-21T04:07:29;100769.00;;;13.00
23208;BMP180;11773;52.570;13.052;2023-11-21T04:10:00;100794.00;;;13.00
23208;BMP180;11773;52.570;13.052;2023-11-21T04:12:29;100791.00;;;13.00
23208;BMP180;11773;52.570;13.052;2023-11-21T04:14:59;100804.00;;;13.00
23208;BMP180;11773;52.570;13.052;2023-11-21T04:17:29;100802.00;;;13.00
23208;BMP180;11773;52.570;13.052;2023-11-21T04:19:59;100799.00;;;12.90
23208;BMP180;11773;52.570;13.052;2023-11-21T04:22:28;100785.00;;;12.90
23208;BMP180;11773;52.570;13.052;2023-11-21T04:28:46;100807.00;;;12.70
23208;BMP180;11773;52.570;13.052;2023-11-21T04:31:16;100802.00;;;12.70
23208;BMP180;11773;52.570;13.052;2023-11-21T04:33:45;100817.00;;;12.80
23208;BMP180;11773;52.570;13.052;2023-11-21T04:36:15;100807.00;;;12.80
23208;BMP180;11773;52.570;13.052;2023-11-21T04:38:45;100812.00;;;12.80
23208;BMP180;11773;52.570;13.052;2023-11-21T04:41:15;100800.00;;;12.80
23208;BMP180;11773;52.570;13.052;2023-11-21T04:43:45;100808.00;;;12.80
23208;BMP180;11773;52.570;13.052;2023-11-21T04:46:14;100804.00;;;12.70
23208;BMP180;11773;52.570;13.052;2023-11-21T04:48:44;100811.00;;;12.70
23208;BMP180;11773;52.570;13.052;2023-11-21T04:51:14;100813.00;;;12.70
23208;BMP180;11773;52.570;13.052;2023-11-21T04:53:43;100807.00;;;12.70
23208;BMP180;11773;52.570;13.052;2023-11-21T04:56:13;100826.00;;;12.70
23208;BMP180;11773;52.570;13.052;2023-11-21T04:58:44;100825.00;;;12.80
23208;BMP180;11773;52.570;13.052;2023-11-21T05:01:14;100826.00;;;12.70
23208;BMP180;11773;52.570;13.052;2023-11-21T05:03:43;100829.00;;;12.70
23208;BMP180;11773;52.570;13.052;2023-11-21T05:06:13;100844.00;;;12.70
23208;BMP180;11773;52.570;13.052;2023-11-21T05:08:42;100851.00;;;12.70
23208;BMP180;11773;52.570;13.052;2023-11-21T05:11:12;100844.00;;;12.70
23208;BMP180;11773;52.570;13.052;2023-11-21T05:13:43;100859.00;;;12.70
23208;BMP180;11773;52.570;13.052;2023-11-21T05:16:12;100853.00;;;12.70
23208;BMP180;11773;52.570;13.052;2023-11-21T05:18:43;100838.00;;;12.70
23208;BMP180;11773;52.570;13.052;2023-11-21T05:21:12;100853.00;;;12.70
23208;BMP180;11773;52.570;13.052;2023-11-21T05:23:43;100848.00;;;12.70
23208;BMP180;11773;52.570;13.052;2023-11-21T05:26:13;100861.00;;;12.70
23208;BMP180;11773;52.570;13.052;2023-11-21T05:28:43;100871.00;;;12.70
23208;BMP180;11773;52.570;13.052;2023-11-21T05:31:12;100866.00;;;12.70
23208;BMP180;11773;52.570;13.052;2023-11-21T05:33:44;100880.00;;;12.70
23208;BMP180;11773;52.570;13.052;2023-11-21T05:36:14;100876.00;;;12.70
23208;BMP180;11773;52.570;13.052;2023-11-21T05:38:43;100881.00;;;12.70
23208;BMP180;11773;52.570;13.052;2023-11-21T05:41:14;100888.00;;;12.70
23208;BMP180;11773;52.570;13.052;2023-11-21T05:43:45;100901.00;;;12.70
23208;BMP180;11773;52.570;13.052;2023-11-21T05:46:15;100897.00;;;12.70
23208;BMP180;11773;52.570;13.052;2023-11-21T05:48:44;100898.00;;;12.70
23208;BMP180;11773;52.570;13.052;2023-11-21T05:51:14;100904.00;;;12.70
23208;BMP180;11773;52.570;13.052;2023-11-21T05:53:44;100907.00;;;12.70
23208;BMP180;11773;52.570;13.052;2023-11-21T05:56:13;100901.00;;;12.70
23208;BMP180;11773;52.570;13.052;2023-11-21T05:58:43;100908.00;;;12.60
23208;BMP180;11773;52.570;13.052;2023-11-21T06:01:13;100910.00;;;12.60
23208;BMP180;11773;52.570;13.052;2023-11-21T06:03:43;100932.00;;;12.50
23208;BMP180;11773;52.570;13.052;2023-11-21T06:06:12;100924.00;;;12.50
23208;BMP180;11773;52.570;13.052;2023-11-21T06:08:42;100927.00;;;12.50
23208;BMP180;11773;52.570;13.052;2023-11-21T06:11:11;100931.00;;;12.50
23208;BMP180;11773;52.570;13.052;2023-11-21T06:13:42;100933.00;;;12.50
23208;BMP180;11773;52.570;13.052;2023-11-21T06:16:12;100935.00;;;12.40
23208;BMP180;11773;52.570;13.052;2023-11-21T06:18:43;100937.00;;;12.40
23208;BMP180;11773;52.570;13.052;2023-11-21T06:21:13;100948.00;;;12.40
23208;BMP180;11773;52.570;13.052;2023-11-21T06:23:44;100943.00;;;12.40
23208;BMP180;11773;52.570;13.052;2023-11-21T06:26:14;100949.00;;;12.40
23208;BMP180;11773;52.570;13.052;2023-11-21T06:28:43;100966.00;;;12.30
23208;BMP180;11773;52.570;13.052;2023-11-21T06:31:13;100967.00;;;12.30
23208;BMP180;11773;52.570;13.052;2023-11-21T06:33:43;100967.00;;;12.20
23208;BMP180;11773;52.570;13.052;2023-11-21T06:36:12;100956.00;;;12.20
23208;BMP180;11773;52.570;13.052;2023-11-21T06:38:42;100969.00;;;12.20
23208;BMP180;11773;52.570;13.052;2023-11-21T06:41:13;100966.00;;;12.20
23208;BMP180;11773;52.570;13.052;2023-11-21T06:43:43;100960.00;;;12.20
23208;BMP180;11773;52.570;13.052;2023-11-21T06:46:15;100977.00;;;12.20
23208;BMP180;11773;52.570;13.052;2023-11-21T06:48:45;100975.00;;;12.20
23208;BMP180;11773;52.570;13.052;2023-11-21T06:51:14;100979.00;;;12.20
23208;BMP180;11773;52.570;13.052;2023-11-21T06:53:44;100988.00;;;12.20
23208;BMP180;11773;52.570;13.052;2023-11-21T06:56:20;100985.00;;;12.20
23208;BMP180;11773;52.570;13.052;2023-11-21T06:58:49;100991.00;;;12.10
23208;BMP180;11773;52.570;13.052;2023-11-21T07:01:21;100997.00;;;12.20
23208;BMP180;11773;52.570;13.052;2023-11-21T07:03:50;101006.00;;;12.20
23208;BMP180;11773;52.570;13.052;2023-11-21T07:06:20;101008.00;;;12.20
23208;BMP180;11773;52.570;13.052;2023-11-21T07:08:50;101010.00;;;12.20
23208;BMP180;11773;52.570;13.052;2023-11-21T07:11:19;101016.00;;;12.10
23208;BMP180;11773;52.570;13.052;2023-11-21T07:13:49;101002.00;;;12.20
23208;BMP180;11773;52.570;13.052;2023-11-21T07:16:19;101002.00;;;12.20
23208;BMP180;11773;52.570;13.052;2023-11-21T07:18:49;101012.00;;;12.20
23208;BMP180;11773;52.570;13.052;2023-11-21T07:21:19;101027.00;;;12.20
23208;BMP180;11773;52.570;13.052;2023-11-21T07:23:49;101011.00;;;12.20
23208;BMP180;11773;52.570;13.052;2023-11-21T07:26:18;101009.00;;;12.10
23208;BMP180;11773;52.570;13.052;2023-11-21T07:28:48;101002.00;;;12.10
23208;BMP180;11773;52.570;13.052;2023-11-21T07:31:18;101014.00;;;12.10
23208;BMP180;11773;52.570;13.052;2023-11-21T07:33:49;101008.00;;;12.10
23208;BMP180;11773;52.570;13.052;2023-11-21T07:36:20;101014.00;;;12.10
23208;BMP180;11773;52.570;13.052;2023-11-21T07:38:51;101011.00;;;12.10
23208;BMP180;11773;52.570;13.052;2023-11-21T07:41:20;101022.00;;;12.10
23208;BMP180;11773;52.570;13.052;2023-11-21T07:43:52;101023.00;;;12.10
23208;BMP180;11773;52.570;13.052;2023-11-21T07:46:23;101031.00;;;12.10
23208;BMP180;11773;52.570;13.052;2023-11-21T07:48:55;101040.00;;;12.10
23208;BMP180;11773;52.570;13.052;2023-11-21T07:51:24;101043.00;;;12.10
23208;BMP180;11773;52.570;13.052;2023-11-21T07:53:54;101035.00;;;12.10
23208;BMP180;11773;52.570;13.052;2023-11-21T07:56:23;101036.00;;;12.10
23208;BMP180;11773;52.570;13.052;2023-11-21T07:58:53;101054.00;;;12.10
23208;BMP180;11773;52.570;13.052;2023-11-21T08:01:22;101037.00;;;12.10
23208;BMP180;11773;52.570;13.052;2023-11-21T08:03:52;101059.00;;;12.10
23208;BMP180;11773;52.570;13.052;2023-11-21T08:06:25;101051.00;;;12.10
23208;BMP180;11773;52.570;13.052;2023-11-21T08:08:55;101049.00;;;12.10
23208;BMP180;11773;52.570;13.052;2023-11-21T08:11:25;101046.00;;;12.10
23208;BMP180;11773;52.570;13.052;2023-11-21T08:13:56;101050.00;;;12.10
23208;BMP180;11773;52.570;13.052;2023-11-21T08:16:27;101049.00;;;12.10
23208;BMP180;11773;52.570;13.052;2023-11-21T08:18:57;101059.00;;;12.20
23208;BMP180;11773;52.570;13.052;2023-11-21T08:21:26;101051.00;;;12.20
23208;BMP180;11773;52.570;13.052;2023-11-21T08:23:57;101056.00;;;12.20
23208;BMP180;11773;52.570;13.052;2023-11-21T08:26:28;101068.00;;;12.20
23208;BMP180;11773;52.570;13.052;2023-11-21T08:28:58;101078.00;;;12.20
23208;BMP180;11773;52.570;13.052;2023-11-21T08:31:27;101078.00;;;12.20
23208;BMP180;11773;52.570;13.052;2023-11-21T08:33:57;101079.00;;;12.20
23208;BMP180;11773;52.570;13.052;2023-11-21T08:36:27;101087.00;;;12.20
23208;BMP180;11773;52.570;13.052;2023-11-21T08:38:56;101094.00;;;12.20
23208;BMP180;11773;52.570;13.052;2023-11-21T08:41:26;101096.00;;;12.20
23208;BMP180;11773;52.570;13.052;2023-11-21T08:43:56;101110.00;;;12.20
23208;BMP180;11773;52.570;13.052;2023-11-21T08:46:26;101100.00;;;12.10
23208;BMP180;11773;52.570;13.052;2023-11-21T08:48:56;101090.00;;;12.10
23208;BMP180;11773;52.570;13.052;2023-11-21T08:51:26;101101.00;;;12.00
23208;BMP180;11773;52.570;13.052;2023-11-21T08:53:55;101121.00;;;12.00
23208;BMP180;11773;52.570;13.052;2023-11-21T08:56:27;101100.00;;;12.00
23208;BMP180;11773;52.570;13.052;2023-11-21T08:58:57;101110.00;;;12.00
23208;BMP180;11773;52.570;13.052;2023-11-21T09:01:29;101118.00;;;11.90
23208;BMP180;11773;52.570;13.052;2023-11-21T09:04:01;101114.00;;;11.90
23208;BMP180;11773;52.570;13.052;2023-11-21T09:06:31;101123.00;;;11.90
23208;BMP180;11773;52.570;13.052;2023-11-21T09:09:01;101134.00;;;11.90
23208;BMP180;11773;52.570;13.052;2023-11-21T09:11:35;101129.00;;;11.80
23208;BMP180;11773;52.570;13.052;2023-11-21T09:14:05;101130.00;;;11.80
23208;BMP180;11773;52.570;13.052;2023-11-21T09:16:35;101133.00;;;11.80
23208;BMP180;11773;52.570;13.052;2023-11-21T09:19:05;101143.00;;;11.80
23208;BMP180;11773;52.570;13.052;2023-11-21T09:21:34;101147.00;;;11.80
23208;BMP180;11773;52.570;13.052;2023-11-21T09:24:04;101156.00;;;11.80
23208;BMP180;11773;52.570;13.052;2023-11-21T09:26:34;101163.00;;;11.80
23208;BMP180;11773;52.570;13.052;2023-11-21T09:29:03;101163.00;;;11.80
23208;BMP180;11773;52.570;13.052;2023-11-21T09:31:33;101159.00;;;11.80
23208;BMP180;11773;52.570;13.052;2023-11-21T09:34:04;101153.00;;;11.70
23208;BMP180;11773;52.570;13.052;2023-11-21T09:36:34;101158.00;;;11.70
23208;BMP180;11773;52.570;13.052;2023-11-21T09:39:06;101163.00;;;11.70
23208;BMP180;11773;52.570;13.052;2023-11-21T09:41:59;101161.00;;;11.70
23208;BMP180;11773;52.570;13.052;2023-11-21T09:45:03;101170.00;;;11.70
23208;BMP180;11773;52.570;13.052;2023-11-21T09:47:35;101168.00;;;11.60
23208;BMP180;11773;52.570;13.052;2023-11-21T09:50:06;101175.00;;;11.70
23208;BMP180;11773;52.570;13.052;2023-11-21T09:53:13;101185.00;;;11.60
23208;BMP180;11773;52.570;13.052;2023-11-21T09:55:47;101176.00;;;11.60
23208;BMP180;11773;52.570;13.052;2023-11-21T09:58:19;101193.00;;;11.60
23208;BMP180;11773;52.570;13.052;2023-11-21T10:00:55;101187.00;;;11.60
23208;BMP180;11773;52.570;13.052;2023-11-21T10:03:25;101209.00;;;11.60
23208;BMP180;11773;52.570;13.052;2023-11-21T10:05:56;101202.00;;;11.60
23208;BMP180;11773;52.570;13.052;2023-11-21T10:08:28;101187.00;;;11.60
23208;BMP180;11773;52.570;13.052;2023-11-21T10:11:02;101195.00;;;11.60
23208;BMP180;11773;52.570;13.052;2023-11-21T10:13:35;101192.00;;;11.60
23208;BMP180;11773;52.570;13.052;2023-11-21T10:16:07;101195.00;;;11.60
23208;BMP180;11773;52.570;13.052;2023-11-21T10:18:40;101194.00;;;11.60
23208;BMP180;11773;52.570;13.052;2023-11-21T10:21:10;101192.00;;;11.60
23208;BMP180;11773;52.570;13.052;2023-11-21T10:23:41;101194.00;;;11.60
23208;BMP180;11773;52.570;13.052;2023-11-21T10:26:13;101194.00;;;11.60
23208;BMP180;11773;52.570;13.052;2023-11-21T10:29:01;101193.00;;;11.60
23208;BMP180;11773;52.570;13.052;2023-11-21T10:31:34;101203.00;;;11.60
23208;BMP180;11773;52.570;13.052;2023-11-21T10:34:20;101205.00;;;11.60
23208;BMP180;11773;52.570;13.052;2023-11-21T10:36:51;101203.00;;;11.60
23208;BMP180;11773;52.570;13.052;2023-11-21T10:39:21;101207.00;;;11.60
23208;BMP180;11773;52.570;13.052;2023-11-21T10:41:53;101200.00;;;11.60
23208;BMP180;11773;52.570;13.052;2023-11-21T10:44:23;101214.00;;;11.60
23208;BMP180;11773;52.570;13.052;2023-11-21T10:46:55;101209.00;;;11.60
23208;BMP180;11773;52.570;13.052;2023-11-21T10:49:27;101217.00;;;11.60
23208;BMP180;11773;52.570;13.052;2023-11-21T10:51:57;101218.00;;;11.60
23208;BMP180;11773;52.570;13.052;2023-11-21T10:54:27;101217.00;;;11.60
23208;BMP180;11773;52.570;13.052;2023-11-21T10:57:01;101219.00;;;11.60
23208;BMP180;11773;52.570;13.052;2023-11-21T10:59:32;101229.00;;;11.60
23208;BMP180;11773;52.570;13.052;2023-11-21T11:02:07;101246.00;;;11.60
23208;BMP180;11773;52.570;13.052;2023-11-21T11:04:35;101231.00;;;11.60
23208;BMP180;11773;52.570;13.052;2023-11-21T11:07:08;101240.00;;;11.50
23208;BMP180;11773;52.570;13.052;2023-11-21T11:09:40;101245.00;;;11.50
23208;BMP180;11773;52.570;13.052;2023-11-21T11:12:10;101244.00;;;11.50
23208;BMP180;11773;52.570;13.052;2023-11-21T11:14:42;101233.00;;;11.50
23208;BMP180;11773;52.570;13.052;2023-11-21T11:17:14;101246.00;;;11.50
23208;BMP180;11773;52.570;13.052;2023-11-21T11:19:44;101240.00;;;11.40
23208;BMP180;11773;52.570;13.052;2023-11-21T11:25:30;101253.00;;;11.40
23208;BMP180;11773;52.570;13.052;2023-11-21T11:28:06;101260.00;;;11.30
23208;BMP180;11773;52.570;13.052;2023-11-21T11:34:08;101273.00;;;11.30
23208;BMP180;11773;52.570;13.052;2023-11-21T11:36:43;101262.00;;;11.20
23208;BMP180;11773;52.570;13.052;2023-11-21T11:42:06;101276.00;;;11.20
23208;BMP180;11773;52.570;13.052;2023-11-21T11:44:46;101271.00;;;11.20
23208;BMP180;11773;52.570;13.052;2023-11-21T11:47:24;101293.00;;;11.20
23208;BMP180;11773;52.570;13.052;2023-11-21T11:50:10;101283.00;;;11.20
23208;BMP180;11773;52.570;13.052;2023-11-21T11:52:47;101288.00;;;11.10
23208;BMP180;11773;52.570;13.052;2023-11-21T11:55:21;101285.00;;;11.20
23208;BMP180;11773;52.570;13.052;2023-11-21T11:57:55;101299.00;;;11.20
23208;BMP180;11773;52.570;13.052;2023-11-21T12:00:34;101294.00;;;11.20
23208;BMP180;11773;52.570;13.052;2023-11-21T12:03:10;101296.00;;;11.20
23208;BMP180;11773;52.570;13.052;2023-11-21T12:05:41;101301.00;;;11.20
23208;BMP180;11773;52.570;13.052;2023-11-21T12:08:12;101301.00;;;11.20
23208;BMP180;11773;52.570;13.052;2023-11-21T12:10:43;101296.00;;;11.20
23208;BMP180;11773;52.570;13.052;2023-11-21T12:13:13;101304.00;;;11.10
23208;BMP180;11773;52.570;13.052;2023-11-21T12:15:42;101323.00;;;11.10
23208;BMP180;11773;52.570;13.052;2023-11-21T12:18:12;101320.00;;;11.10
23208;BMP180;11773;52.570;13.052;2023-11-21T12:20:42;101330.00;;;11.10
23208;BMP180;11773;52.570;13.052;2023-11-21T12:23:13;101314.00;;;11.10
23208;BMP180;11773;52.570;13.052;2023-11-21T12:25:46;101325.00;;;11.10
23208;BMP180;11773;52.570;13.052;2023-11-21T12:28:15;101325.00;;;11.20
23208;BMP180;11773;52.570;13.052;2023-11-21T12:30:45;101324.00;;;11.10
23208;BMP180;11773;52.570;13.052;2023-11-21T12:33:15;101337.00;;;11.20
23208;BMP180;11773;52.570;13.052;2023-11-21T12:35:46;101337.00;;;11.20
23208;BMP180;11773;52.570;13.052;2023-11-21T12:38:15;101336.00;;;11.20
23208;BMP180;11773;52.570;13.052;2023-11-21T12:40:47;101344.00;;;11.20
23208;BMP180;11773;52.570;13.052;2023-11-21T12:43:18;101336.00;;;11.20
23208;BMP180;11773;52.570;13.052;2023-11-21T12:45:47;101350.00;;;11.20
23208;BMP180;11773;52.570;13.052;2023-11-21T12:48:17;101341.00;;;11.20
23208;BMP180;11773;52.570;13.052;2023-11-21T12:50:48;101355.00;;;11.20
23208;BMP180;11773;52.570;13.052;2023-11-21T12:53:19;101365.00;;;11.20
23208;BMP180;11773;52.570;13.052;2023-11-21T12:55:49;101369.00;;;11.20
23208;BMP180;11773;52.570;13.052;2023-11-21T12:58:22;101376.00;;;11.20
23208;BMP180;11773;52.570;13.052;2023-11-21T13:00:53;101392.00;;;11.10
23208;BMP180;11773;52.570;13.052;2023-11-21T13:03:26;101372.00;;;11.10
23208;BMP180;11773;52.570;13.052;2023-11-21T13:05:56;101378.00;;;11.00
23208;BMP180;11773;52.570;13.052;2023-11-21T13:08:27;101385.00;;;11.00
23208;BMP180;11773;52.570;13.052;2023-11-21T13:10:59;101398.00;;;11.00
23208;BMP180;11773;52.570;13.052;2023-11-21T13:13:32;101390.00;;;11.00
23208;BMP180;11773;52.570;13.052;2023-11-21T13:16:03;101397.00;;;11.00
23208;BMP180;11773;52.570;13.052;2023-11-21T13:18:34;101390.00;;;11.00
23208;BMP180;11773;52.570;13.052;2023-11-21T13:21:05;101398.00;;;11.00
23208;BMP180;11773;52.570;13.052;2023-11-21T13:23:40;101385.00;;;11.00
23208;BMP180;11773;52.570;13.052;2023-11-21T13:26:10;101393.00;;;11.00
23208;BMP180;11773;52.570;13.052;2023-11-21T13:28:40;101390.00;;;11.00
23208;BMP180;11773;52.570;13.052;2023-11-21T13:31:12;101392.00;;;11.00
23208;BMP180;11773;52.570;13.052;2023-11-21T13:33:51;101396.00;;;11.00
23208;BMP180;11773;52.570;13.052;2023-11-21T13:36:26;101407.00;;;10.90
23208;BMP180;11773;52.570;13.052;2023-11-21T13:38:57;101405.00;;;10.90
23208;BMP180;11773;52.570;13.052;2023-11-21T13:41:31;101409.00;;;10.90
23208;BMP180;11773;52.570;13.052;2023-11-21T13:44:01;101434.00;;;10.90
23208;BMP180;11773;52.570;13.052;2023-11-21T13:46:35;101421.00;;;10.80
23208;BMP180;11773;52.570;13.052;2023-11-21T13:49:06;101424.00;;;10.80
23208;BMP180;11773;52.570;13.052;2023-11-21T13:51:38;101437.00;;;10.80
23208;BMP180;11773;52.570;13.052;2023-11-21T13:54:12;101427.00;;;10.80
23208;BMP180;11773;52.570;13.052;2023-11-21T13:56:42;101437.00;;;10.70
23208;BMP180;11773;52.570;13.052;2023-11-21T13:59:13;101438.00;;;10.70
23208;BMP180;11773;52.570;13.052;2023-11-21T14:01:56;101454.00;;;10.70
23208;BMP180;11773;52.570;13.052;2023-11-21T14:04:30;101462.00;;;10.60
23208;BMP180;11773;52.570;13.052;2023-11-21T14:07:02;101464.00;;;10.60
23208;BMP180;11773;52.570;13.052;2023-11-21T14:09:33;101461.00;;;10.60
23208;BMP180;11773;52.570;13.052;2023-11-21T14:12:04;101471.00;;;10.50
23208;BMP180;11773;52.570;13.052;2023-11-21T14:14:36;101478.00;;;10.50
23208;BMP180;11773;52.570;13.052;2023-11-21T14:17:05;101479.00;;;10.50
23208;BMP180;11773;52.570;13.052;2023-11-21T14:19:35;101473.00;;;10.50